Terminal Aerodrome Forecast
Issued by NWS

Home | Current Version | Previous Version | Text Only | Print | Product List | Glossary On
Versions: 1 2 3 4 5 6 7 8 9 10 11 12 13 14 15 16 17 18 19 20 21 22 23 24 25 26 27 28 29 30 31 32 33 34 35 36
000
FTUS43 KGRB 211121
TAFMTW
TAF
KMTW 211121Z 2112/2212 35004KT P6SM SCT025
      TEMPO 2112/2115 -SHSN BKN025
     FM211500 13004KT P6SM -SHSN BKN025
      TEMPO 2115/2119 1 1/2SM -SHSN
     FM212000 16010KT P6SM -SHSN BKN025
     FM220000 16012KT P6SM BKN030
     FM220300 16015G23KT P6SM OVC060 PROB30 2206/2209 4SM -SN
      BKN025=

USA.gov is the U.S. government's official web portal to all federal, state and local government web resources and services.